• Join FlightAware (Why Join?)
  • Login
  • US Flag 
11:58PM EDT


 

Airport Tracker/Info


-or-


 

Live Flight TrackerFlight Track Log ✈ ASA601 ✈ 24-Apr-2013 ✈ KLAS - KSEA

Flight Track Log - Related Links

Times and Time Zones

All times are in EDT time to prevent confusion due to time zone crossing. See the ASA601 flight status page for this flight to view local times or setup timezone preferences in your user account.

Time Position Orientation Groundspeed Altitude Reporting Facility
EDT Latitude Longitude Course Direction KTS MPH feet Rate Location/Type
01:29AM 36.0689 -115.2450 310° West 227 261 5,900  Level Los Angeles Center
01:30AM 36.0225 -115.2789 211° Southwest 280 322 7,000 660 Climbing Los Angeles Center
01:31AM 35.9494 -115.3211 205° Southwest 274 315 7,200 900 Climbing Los Angeles Center
01:32AM 35.8953 -115.3933 227° Southwest 280 322 9,000 1,680 Climbing Los Angeles Center
01:33AM 35.8867 -115.4886 264° West 290 334 10,700 2,580 Climbing Los Angeles Center
01:34AM 36.0019 -116.0862 310° West  Level FlightAware Approximate
01:34AM 35.8900 -115.6117 272° West 330 380 14,300  Level Los Angeles Center
01:35AM 35.8911 -115.7356 271° West 358 412 18,300 3,780 Climbing Los Angeles Center
01:36AM 35.8933 -115.8744 271° West 378 435 22,000 3,240 Climbing Los Angeles Center
01:37AM 35.9181 -115.9944 284° West 410 472 24,900 3,000 Climbing Los Angeles Center
01:38AM 36.0150 -116.1069 317° Northwest 431 496 28,200 2,820 Climbing Los Angeles Center
01:39AM 36.1067 -116.2039 320° Northwest 432 497 30,700 2,160 Climbing Los Angeles Center
01:40AM 36.1944 -116.2800 325° Northwest 440 506 32,600 2,160 Climbing Los Angeles Center
01:41AM 36.2928 -116.3706 323° Northwest 442 509 35,100 2,160 Climbing Los Angeles Center
01:42AM 36.3906 -116.4606 323° Northwest 441 507 37,100 1,740 Climbing Los Angeles Center
01:43AM 36.5078 -116.5672 324° Northwest 438 504 38,700 1,380 Climbing Los Angeles Center
01:44AM 36.6022 -116.6556 323° Northwest 444 511 40,000 600 Climbing Los Angeles Center
01:45AM 36.6983 -116.7461 323° Northwest 435 501 40,000  Level Los Angeles Center
01:46AM 36.7742 -116.8167 323° Northwest 428 493 40,000  Level Los Angeles Center
01:47AM 36.8889 -116.9231 323° Northwest 427 491 40,000  Level Los Angeles Center
01:47AM 36.9258 -116.9597 322° Northwest 427 491 40,000  Level Oakland Center
01:48AM 37.0211 -117.0492 323° Northwest 427 491 40,000  Level Oakland Center
01:49AM 37.1175 -117.1411 323° Northwest 433 498 40,000  Level Oakland Center
01:50AM 37.2147 -117.2339 323° Northwest 437 503 40,000  Level Oakland Center
01:51AM 37.3256 -117.3003 335° Northwest 443 510 40,000  Level Oakland Center
01:52AM 37.4394 -117.3608 337° Northwest 443 510 40,000  Level Oakland Center
01:53AM 37.5533 -117.4233 336° Northwest 445 512 40,000  Level Oakland Center
01:54AM 37.6667 -117.4864 336° Northwest 442 509 40,000  Level Oakland Center
01:55AM 37.7803 -117.5478 337° Northwest 440 506 40,000  Level Oakland Center
01:56AM 37.8933 -117.6111 336° Northwest 440 506 40,000  Level Oakland Center
01:57AM 38.0047 -117.6714 337° Northwest 433 498 40,000  Level Oakland Center
01:58AM 38.1128 -117.7328 336° Northwest 423 487 40,000  Level Oakland Center
02:00AM 38.2208 -117.7933 336° Northwest 421 484 40,000  Level Oakland Center
02:01AM 38.3303 -117.8547 336° Northwest 427 491 40,000  Level Oakland Center
02:02AM 38.4408 -117.9172 336° Northwest 430 495 40,000  Level Oakland Center
02:03AM 38.5500 -117.9781 336° Northwest 427 491 40,000  Level Oakland Center
02:04AM 38.6622 -118.0422 336° Northwest 426 490 40,000  Level Oakland Center
02:05AM 38.8333 -118.1406 336° Northwest 429 494 40,000  Level Salt Lake Center
02:06AM 38.8803 -118.1667 337° Northwest 428 493 40,000  Level Oakland Center
02:07AM 38.9889 -118.2283 336° Northwest 427 491 40,000  Level Oakland Center
02:08AM 39.0958 -118.2917 335° Northwest 425 489 40,000  Level Oakland Center
02:09AM 39.2033 -118.3533 336° Northwest 425 489 40,000  Level Oakland Center
02:10AM 39.3097 -118.4144 336° Northwest 424 488 40,000  Level Oakland Center
02:11AM 39.4181 -118.4772 336° Northwest 426 490 40,000  Level Oakland Center
02:12AM 39.6075 -118.5889 336° Northwest 427 491 40,000  Level Salt Lake Center
02:13AM 39.6500 -118.6142 335° Northwest 425 489 40,000  Level Oakland Center
02:14AM 39.7569 -118.6775 336° Northwest 426 490 40,000  Level Oakland Center
02:15AM 39.8647 -118.7403 336° Northwest 425 489 40,000  Level Oakland Center
02:16AM 39.9717 -118.8036 336° Northwest 425 489 40,000  Level Oakland Center
02:18AM 40.1853 -118.9325 335° Northwest 421 484 40,000  Level Oakland Center
02:20AM 40.3972 -119.0600 335° Northwest 424 488 40,000  Level Oakland Center
02:21AM 40.5025 -119.1233 335° Northwest 418 481 40,000  Level Oakland Center
02:22AM 40.6086 -119.1864 336° Northwest 417 480 40,000  Level Oakland Center
02:23AM 40.7136 -119.2508 335° Northwest 417 480 40,000  Level Oakland Center
02:24AM 40.8125 -119.3117 335° Northwest 418 481 40,000  Level Oakland Center
02:25AM 40.9314 -119.3817 336° Northwest 420 483 40,000  Level Oakland Center
02:26AM 41.0314 -119.4442 335° Northwest 416 479 40,000  Level Oakland Center
02:27AM 41.1442 -119.5136 335° Northwest 414 476 40,000  Level Oakland Center
02:28AM 41.2453 -119.5786 334° Northwest 406 467 40,000  Level Seattle Center
02:29AM 41.3475 -119.6419 335° Northwest 406 467 40,000  Level Oakland Center
02:30AM 41.4503 -119.7036 336° Northwest 406 467 40,000  Level Oakland Center
02:31AM 41.5567 -119.7667 336° Northwest 412 474 40,000  Level Seattle Center
02:32AM 41.6600 -119.8325 335° Northwest 410 472 40,000  Level Seattle Center
02:33AM 41.7603 -119.8972 334° Northwest 412 474 40,000  Level Oakland Center
02:34AM 41.8617 -119.9642 334° Northwest 407 468 40,000  Level Oakland Center
02:35AM 41.9656 -120.0267 336° Northwest 410 472 40,000  Level Oakland Center
02:36AM 42.0669 -120.0925 334° Northwest 406 467 40,000  Level Seattle Center
02:37AM 42.1692 -120.1575 335° Northwest 409 471 40,000  Level Seattle Center
02:38AM 42.2731 -120.2214 336° Northwest 412 474 40,000  Level Seattle Center
02:39AM 42.3742 -120.2869 334° Northwest 409 471 40,000  Level Seattle Center
02:40AM 42.4753 -120.3514 335° Northwest 405 466 40,000  Level Seattle Center
02:41AM 42.5750 -120.4169 334° Northwest 400 460 40,000  Level Seattle Center
02:42AM 42.6750 -120.4817 335° Northwest 400 460 40,000  Level Seattle Center
02:43AM 42.7758 -120.5469 335° Northwest 402 463 40,000  Level Seattle Center
02:44AM 42.8753 -120.6111 335° Northwest 399 459 40,000  Level Seattle Center
02:45AM 42.9750 -120.6775 334° Northwest 399 459 40,000  Level Seattle Center
02:46AM 43.0747 -120.7419 335° Northwest 399 459 40,000  Level Seattle Center
02:47AM 43.1708 -120.8036 335° Northwest 388 447 40,000  Level Seattle Center
02:48AM 43.2686 -120.8689 334° Northwest 390 449 40,000  Level Seattle Center
02:49AM 43.3681 -120.9372 333° Northwest 398 458 40,000  Level Seattle Center
02:50AM 43.4656 -121.0019 334° Northwest 393 452 40,000  Level Seattle Center
02:51AM 43.5658 -121.0686 334° Northwest 393 452 40,000  Level Seattle Center
02:52AM 43.6631 -121.1339 334° Northwest 394 453 40,000  Level Seattle Center
02:53AM 43.7625 -121.2008 334° Northwest 397 457 40,000  Level Seattle Center
02:54AM 43.8658 -121.2700 334° Northwest 400 460 40,000  Level Seattle Center
02:55AM 43.9672 -121.3397 334° Northwest 403 464 40,000  Level Seattle Center
02:56AM 44.0694 -121.4086 334° Northwest 404 465 40,000  Level Seattle Center
02:57AM 44.1706 -121.4761 334° Northwest 399 459 40,000  Level Seattle Center
02:58AM 44.2706 -121.5453 334° Northwest 396 456 40,000  Level Seattle Center
02:59AM 44.3717 -121.6153 334° Northwest 400 460 40,000  Level Seattle Center
03:00AM 44.4719 -121.6844 334° Northwest 399 459 40,000  Level Seattle Center
03:01AM 44.5725 -121.7536 334° Northwest 401 461 40,000  Level Seattle Center
03:02AM 44.6692 -121.8211 334° Northwest 392 451 40,000  Level Seattle Center
03:03AM 44.7658 -121.8894 333° Northwest 389 448 40,000  Level Seattle Center
03:04AM 44.8747 -121.9653 334° Northwest 395 455 40,000  Level Seattle Center
03:05AM 44.9589 -122.0256 333° Northwest 393 452 40,000  Level Seattle Center
03:06AM 45.0539 -122.0928 333° Northwest 387 445 40,000  Level Seattle Center
03:07AM 45.1486 -122.1614 333° Northwest 386 444 40,000  Level Seattle Center
03:08AM 45.2442 -122.2281 334° Northwest 385 443 40,000  Level Seattle Center
03:09AM 45.3381 -122.2956 333° Northwest 382 440 40,000  Level Seattle Center
03:10AM 45.4311 -122.3633 333° Northwest 380 437 40,000  Level Seattle Center
03:11AM 45.5442 -122.4450 333° Northwest 380 437 40,000  Level Seattle Center
03:12AM 45.6383 -122.5133 333° Northwest 382 440 40,000 -240 Level Seattle Center
03:13AM 45.7347 -122.5808 334° Northwest 387 445 39,600 -960 Descending Seattle Center
03:14AM 45.8358 -122.6142 347° North 375 432 38,100 -2,100 Descending Seattle Center
03:15AM 45.9322 -122.6386 350° North 357 411 35,500 -2,820 Descending Seattle Center
03:16AM 46.0278 -122.6631 350° North 351 404 32,500 -2,760 Descending Seattle Center
03:17AM 46.1269 -122.6850 351° North 360 414 30,000 -2,340 Descending Seattle Center
03:18AM 46.2142 -122.7036 352° North 357 411 27,900 -2,220 Descending Seattle Center
03:19AM 46.3067 -122.7211 353° North 342 394 25,600 -2,400 Descending Seattle Center
03:20AM 46.4006 -122.7222 360° North 341 392 23,200 -2,340 Descending Seattle Center
03:21AM 46.4908 -122.7178 North 330 380 21,000 -2,520 Descending Seattle Center
03:22AM 46.6006 -122.7125 North 331 381 18,200 -2,520 Descending Seattle Center
03:23AM 46.6550 -122.7111 North 327 376 16,900 -2,220 Descending Seattle Center
03:23AM 46.6894 -122.7094 North 323 372 16,000 -2,400 Descending Seattle Center
03:24AM 46.7753 -122.7058 North 311 358 13,700 -2,100 Descending Seattle Center
03:25AM 46.8503 -122.6608 22° Northeast 304 350 11,900 -1,800 Descending Seattle Center
03:26AM 46.9089 -122.5792 44° Northeast 296 341 10,100 -1,440 Descending Seattle Center
03:26AM 46.9233 -122.5606 41° Northeast 284 327 10,100 -1,020 Level Seattle Center
03:27AM 46.9606 -122.5100 43° Northeast 257 296 9,100 -1,500 Descending Seattle Center
03:27AM 46.9750 -122.4936 38° Northeast 244 281 8,600 -1,140 Descending Seattle Center
03:28AM 47.0122 -122.4439 42° Northeast 250 288 8,000 -1,140 Descending Seattle Center
03:28AM 47.0367 -122.4211 32° Northeast 242 278 7,400 -1,320 Descending Seattle Center
03:29AM 47.0694 -122.3953 28° Northeast 243 280 6,700 -1,140 Descending Seattle Center
03:29AM 47.0933 -122.3739 31° Northeast 237 273 6,300 -840 Descending Seattle Center
03:30AM 47.1253 -122.3483 29° Northeast 235 270 5,900 -900 Descending Seattle Center
03:30AM 47.1467 -122.3383 18° North 225 259 5,500 -840 Descending Seattle Center
03:31AM 47.1808 -122.3214 19° North 215 247 5,100 -540 Descending Seattle Center
03:31AM 47.2008 -122.3150 12° North 194 223 5,000 -840 Descending Seattle Center
03:32AM 47.2308 -122.3122 North 186 214 4,300 -1,020 Descending Seattle Center
03:32AM 47.2514 -122.3133 358° North 182 209 4,000 -900 Descending Seattle Center
03:33AM 47.2828 -122.3125 North 186 214 3,400 -1,020 Descending Seattle Center
03:33AM 47.3028 -122.3144 356° North 184 212 3,000 -1,020 Descending Seattle Center
03:34AM 47.3322 -122.3122 North 181 208 2,400 -1,020 Descending Seattle Center
03:34AM 47.3517 -122.3139 357° North 174 200 2,000 -840 Descending Seattle Center
03:35AM 47.3739 -122.3122 North 155 178 1,600 -600 Descending Seattle Center
03:35AM 47.3872 -122.3139 355° North 127 146 1,400 -600 Descending Seattle Center
03:36AM 47.4047 -122.3119 North 115 132 1,000 -720 Descending Seattle Center
03:36AM 47.4200 -122.3122 359° North 105 121 700 -600 Descending Seattle Center
03:37AM 47.4414 -122.3114 North 116 133 400 -480 Descending Seattle Center
03:39AM 47.4333 -122.3000 North  Level FlightAware Approximate